Latest Weather Observations for Adelaide Airport

IDS60801

Issued at 9:01 am CDT Monday 15 February 2016 (issued every 30 minutes, with the page automatically refreshed every 10 minutes)

About weather observations | Map of weather stations | Latest weather observations for SA | Other Formats
Station Details ID: 023034 Name: ADELAIDE AIRPORT Lat: -34.95 Lon: 138.52 Height: 2.0 m
Data from the previous 72 hours. | See also: Recent months at Adelaide Airport
Date/Time
CDT
Temp
°C
App
Temp
°C
Dew
Point
Rel
Hum
%
Delta-T
°C
Wind Press
QNH
hPa
Press
MSL
hPa
Rain
since 9 am
mm
Dir
 
Spd
km/h
Gust
km/h
Spd
kts
Gust
kts
15/08:30am 17.9 15.8 9.7 58 4.3 S 11 15 6 8 1017.5 1017.5 0.0
15/08:00am 17.3 15.4 10.5 64 3.6 SSE 11 15 6 8 1017.2 1017.2 0.0
15/07:30am 16.3 14.7 11.5 73 2.6 SSE 11 15 6 8 1016.8 1016.8 0.0
15/07:00am 16.0 14.3 11.1 72 2.6 SSE 11 15 6 8 1016.5 1016.5 0.0
15/06:30am 16.1 14.0 11.3 73 2.6 SSE 13 17 7 9 1016.1 1016.1 0.0
15/06:00am 17.1 14.8 11.8 71 2.9 SSE 15 19 8 10 1015.8 1015.8 0.0
15/05:30am 17.1 15.7 12.2 73 2.7 SSE 11 13 6 7 1015.5 1015.5 0.0
15/05:00am 16.7 16.1 12.3 75 2.4 SE 7 11 4 6 1015.4 1015.4 0.0
15/04:30am 16.7 15.6 12.1 74 2.5 S 9 11 5 6 1015.6 1015.6 0.0
15/04:00am 16.8 15.7 11.8 72 2.7 SSE 9 11 5 6 1015.6 1015.6 0.0
15/03:30am 16.5 15.1 12.1 75 2.4 SE 11 13 6 7 1015.8 1015.8 0.0
15/03:00am 16.5 15.5 12.3 76 2.3 SE 9 9 5 5 1015.9 1015.9 0.0
15/02:30am 16.1 15.4 12.1 77 2.2 ESE 7 9 4 5 1016.0 1016.0 0.0
15/02:00am 16.0 14.9 12.0 77 2.2 SE 9 11 5 6 1016.3 1016.3 0.0
15/01:30am 15.8 14.6 11.7 76 2.2 SSE 9 11 5 6 1016.4 1016.4 0.0
15/01:00am 16.2 15.1 11.8 75 2.4 S 9 11 5 6 1016.7 1016.7 0.0
15/12:30am 16.8 15.7 11.8 72 2.7 SSE 9 11 5 6 1016.7 1016.7 0.0
15/12:00am 17.2 15.2 11.5 69 3.1 SSE 13 17 7 9 1017.1 1017.1 0.0
 
Date/Time
CDT
Temp
°C
App
Temp
°C
Dew
Point
Rel
Hum
%
Delta-T
°C
Wind Press
QNH
hPa
Press
MSL
hPa
Rain
since 9 am
mm
Dir
 
Spd
km/h
Gust
km/h
Spd
kts
Gust
kts
14/11:30pm 17.9 15.5 11.3 65 3.6 S 15 19 8 10 1017.2 1017.2 0.0
14/11:00pm 18.2 15.9 10.5 60 4.1 S 13 17 7 9 1017.3 1017.3 0.0
14/10:30pm 18.4 16.4 11.4 63 3.8 SSE 13 19 7 10 1017.3 1017.3 0.0
14/10:00pm 19.0 16.4 11.9 63 3.9 SSE 17 22 9 12 1017.1 1017.1 0.0
14/09:30pm 19.5 17.4 12.3 63 4.0 SSE 15 19 8 10 1016.6 1016.6 0.0
14/09:00pm 19.7 17.6 12.4 62 4.1 SSW 15 19 8 10 1016.2 1016.2 0.0
14/08:30pm 19.8 17.5 12.9 64 3.9 S 17 24 9 13 1016.0 1016.0 0.0
14/08:00pm 20.1 17.3 13.2 64 3.9 SSW 20 28 11 15 1015.7 1015.7 0.0
14/07:30pm 20.9 17.3 13.0 60 4.5 SSW 24 32 13 17 1015.5 1015.5 0.0
14/07:00pm 20.9 16.5 11.7 55 5.1 SW 26 33 14 18 1015.4 1015.4 0.0
14/06:30pm 21.5 17.1 11.8 54 5.4 SW 26 35 14 19 1015.2 1015.2 0.0
14/06:00pm 21.9 17.5 11.7 52 5.7 SW 26 32 14 17 1015.1 1015.1 0.0
14/05:30pm 21.7 16.8 11.2 51 5.8 SW 28 33 15 18 1015.1 1015.1 0.0
14/05:00pm 21.8 16.9 11.3 51 5.8 SW 28 33 15 18 1015.1 1015.1 0.0
14/04:30pm 22.5 18.3 12.5 53 5.7 SW 26 33 14 18 1015.1 1015.1 0.0
14/04:00pm 22.3 17.9 11.8 51 5.9 SW 26 33 14 18 1015.2 1015.2 0.0
14/03:30pm 22.4 18.2 11.0 48 6.3 SW 24 32 13 17 1015.5 1015.5 0.0
14/03:00pm 22.3 17.8 11.3 49 6.1 SW 26 35 14 19 1015.7 1015.7 0.0
14/02:30pm 22.9 18.8 11.4 48 6.4 WSW 24 30 13 16 1016.0 1016.0 0.0
14/02:00pm 21.4 17.4 11.7 54 5.4 WSW 24 32 13 17 1016.1 1016.1 0.0
14/01:30pm 22.3 17.9 10.4 47 6.5 SW 24 35 13 19 1016.1 1016.1 0.0
14/01:00pm 21.9 18.6 11.5 51 5.8 SW 20 32 11 17 1016.3 1016.3 0.0
14/12:30pm 22.2 18.9 11.6 51 5.9 SW 20 32 11 17 1016.4 1016.4 0.0
14/12:00pm 21.2 18.4 12.5 57 4.9 SSW 19 26 10 14 1016.7 1016.7 0.0
14/11:30am 22.0 18.1 10.9 49 6.1 SW 22 32 12 17 1016.8 1016.8 0.0
14/11:00am 20.8 17.6 11.8 56 5.0 SW 20 30 11 16 1016.8 1016.8 0.0
14/10:30am 21.7 18.1 11.7 53 5.6 SW 22 30 12 16 1016.8 1016.8 0.0
14/10:00am 20.6 17.7 12.2 58 4.7 SSW 19 28 10 15 1016.8 1016.8 0.0
14/09:30am 19.5 17.1 12.7 65 3.8 S 17 24 9 13 1016.6 1016.6 0.0
14/09:00am 19.8 17.1 12.9 64 3.9 SW 19 26 10 14 1016.3 1016.3 0.0
14/08:30am 19.0 17.9 13.0 68 3.4 S 11 13 6 7 1016.1 1016.1 0.0
14/08:00am 18.1 17.4 13.1 72 2.8 SSE 9 13 5 7 1015.7 1015.7 0.0
14/07:30am 17.4 17.0 13.1 76 2.4 SE 7 9 4 5 1015.4 1015.4 0.0
14/07:00am 16.8 16.0 13.0 78 2.1 SE 9 11 5 6 1015.1 1015.1 0.0
14/06:30am 17.1 15.9 12.8 76 2.4 ESE 11 11 6 6 1014.5 1014.5 0.0
14/06:00am 16.7 15.5 12.7 77 2.2 SSE 11 13 6 7 1014.2 1014.2 0.0
14/05:30am 16.3 15.4 12.5 78 2.1 SE 9 11 5 6 1013.9 1013.9 0.0
14/05:00am 16.4 15.1 12.4 77 2.2 SE 11 13 6 7 1013.5 1013.5 0.0
14/04:30am 16.3 15.2 12.1 76 2.3 ESE 9 11 5 6 1013.3 1013.3 0.0
14/04:00am 16.6 15.6 12.4 76 2.3 SE 9 11 5 6 1013.2 1013.2 0.0
14/03:30am 16.8 15.5 12.6 76 2.3 ESE 11 13 6 7 1013.2 1013.2 0.0
14/03:00am 16.4 15.4 12.4 77 2.2 SE 9 11 5 6 1013.4 1013.4 0.0
14/02:30am 16.6 15.8 12.8 78 2.1 SE 9 9 5 5 1013.6 1013.6 0.0
14/02:00am 16.9 16.1 12.8 77 2.3 SSE 9 11 5 6 1013.7 1013.7 0.0
14/01:30am 17.4 16.7 13.1 76 2.4 SSE 9 13 5 7 1013.8 1013.8 0.0
14/01:00am 17.9 16.8 13.1 73 2.7 S 11 15 6 8 1014.0 1014.0 0.0
14/12:30am 18.6 17.1 13.1 70 3.1 S 13 19 7 10 1014.0 1014.0 0.0
14/12:00am 19.4 17.9 13.0 66 3.6 S 13 17 7 9 1014.0 1014.0 0.0
 
Date/Time
CDT
Temp
°C
App
Temp
°C
Dew
Point
Rel
Hum
%
Delta-T
°C
Wind Press
QNH
hPa
Press
MSL
hPa
Rain
since 9 am
mm
Dir
 
Spd
km/h
Gust
km/h
Spd
kts
Gust
kts
13/11:30pm 19.4 17.5 13.0 66 3.6 S 15 19 8 10 1014.2 1014.2 0.0
13/11:00pm 19.7 17.3 12.8 64 3.9 S 17 26 9 14 1014.3 1014.3 0.0
13/10:30pm 20.0 17.1 12.9 63 4.0 S 20 26 11 14 1014.3 1014.3 0.0
13/10:00pm 20.7 18.4 13.0 61 4.4 S 17 24 9 13 1013.9 1013.9 0.0
13/09:30pm 21.4 17.2 13.6 61 4.5 SSW 28 37 15 20 1013.7 1013.7 0.0
13/09:00pm 21.7 20.4 15.9 69 3.5 SSW 17 24 9 13 1013.3 1013.3 0.0
13/08:30pm 21.6 20.0 16.1 71 3.3 SSW 19 28 10 15 1013.1 1013.1 0.0
13/08:00pm 21.7 19.2 16.2 71 3.3 SSW 24 32 13 17 1012.6 1012.6 0.0
13/07:30pm 21.8 20.0 16.9 73 3.0 SSW 22 35 12 19 1012.3 1012.3 0.0
13/07:00pm 22.0 19.5 17.1 74 3.0 SSW 26 35 14 19 1012.1 1012.1 0.0
13/06:30pm 22.1 19.8 17.6 75 2.8 SSW 26 32 14 17 1011.9 1011.9 0.0
13/06:00pm 22.9 20.9 17.4 71 3.4 SW 24 32 13 17 1012.0 1012.0 0.0
13/05:30pm 22.4 20.0 17.4 73 3.1 SSW 26 33 14 18 1012.3 1012.3 0.0
13/05:00pm 22.5 20.8 17.3 72 3.2 SW 22 30 12 16 1012.2 1012.2 0.0
13/04:30pm 22.7 20.8 16.8 69 3.6 SW 22 30 12 16 1012.2 1012.2 0.0
13/04:00pm 22.9 20.7 15.9 64 4.2 SW 22 30 12 16 1011.9 1011.9 0.0
13/03:30pm 24.4 23.4 16.6 61 4.8 SW 17 20 9 11 1011.8 1011.8 0.0
13/03:00pm 23.4 22.1 15.8 62 4.6 SW 17 24 9 13 1012.1 1012.1 0.0
13/02:30pm 23.7 23.1 16.7 65 4.3 SW 15 22 8 12 1012.3 1012.3 0.0
13/02:00pm 23.9 23.3 16.6 63 4.5 SW 15 22 8 12 1012.4 1012.4 0.0
13/01:30pm 23.7 23.0 16.3 63 4.5 SW 15 20 8 11 1012.4 1012.4 0.0
13/01:00pm 23.5 23.0 17.0 67 4.0 SW 15 22 8 12 1012.5 1012.5 0.0
13/12:30pm 22.3 20.9 16.5 69 3.5 SW 19 26 10 14 1012.7 1012.7 0.0
13/12:00pm 23.4 22.0 16.5 65 4.2 SW 19 26 10 14 1012.7 1012.7 0.0
13/11:30am 23.3 21.7 16.0 63 4.4 WSW 19 26 10 14 1012.7 1012.7 0.0
13/11:00am 23.9 21.7 13.4 51 6.1 WSW 17 22 9 12 1012.7 1012.7 0.0
13/10:30am 24.1 22.8 13.7 52 6.1 WNW 13 19 7 10 1012.5 1012.5 0.0
13/10:00am 23.3 21.6 12.4 50 6.2 W 13 17 7 9 1012.5 1012.5 0.0
13/09:30am 23.0 22.6 14.1 57 5.2 N 9 13 5 7 1012.5 1012.5 0.0
13/09:00am 22.4 21.5 14.8 62 4.5 NNE 13 19 7 10 1012.2 1012.2 0.0
13/08:30am 21.1 20.3 12.8 59 4.7 NE 9 11 5 6 1012.5 1012.5 0.0
13/08:00am 19.3 18.4 11.3 60 4.4 NE 7 9 4 5 1012.3 1012.3 0.0
13/07:30am 18.1 17.4 11.9 67 3.4 ENE 7 9 4 5 1012.2 1012.2 0.0
13/07:00am 17.3 16.5 11.6 69 3.1 NE 7 9 4 5 1012.0 1012.0 0.0
13/06:30am 16.6 15.5 10.6 67 3.2 NE 7 9 4 5 1011.5 1011.5 0.0
13/06:00am 16.3 15.2 10.7 69 3.0 ENE 7 7 4 4 1011.2 1011.2 0.0
13/05:30am 16.8 15.3 10.6 67 3.3 NE 9 13 5 7 1010.9 1010.9 0.0
13/05:00am 16.4 17.0 11.8 74 2.5 CALM 0 0 0 0 1011.1 1011.1 0.0
13/04:30am 17.1 17.3 10.5 65 3.5 CALM 0 0 0 0 1010.6 1010.6 0.0
13/04:00am 17.2 17.4 10.7 65 3.5 CALM 0 2 0 1 1010.7 1010.7 0.0
13/03:30am 17.6 16.6 11.1 65 3.5 ENE 7 9 4 5 1010.9 1010.9 0.0
13/03:00am 17.1 16.5 12.4 74 2.6 ESE 7 7 4 4 1011.1 1011.1 0.0
13/02:30am 17.2 17.2 12.3 73 2.7 E 4 11 2 6 1011.4 1011.4 0.0
13/02:00am 18.4 17.8 12.3 67 3.4 ENE 7 7 4 4 1011.3 1011.3 0.0
13/01:30am 18.5 18.0 12.6 68 3.3 E 7 7 4 4 1011.7 1011.7 0.0
13/01:00am 18.1 17.0 12.1 68 3.3 E 9 9 5 5 1012.0 1012.0 0.0
13/12:30am 20.6 22.4 18.2 86 1.5 SSW 6 7 3 4 1012.1 1012.1 0.0
13/12:00am 19.6 20.2 15.7 78 2.3 WSW 7 9 4 5 1012.2 1012.2 0.0
 
Date/Time
CDT
Temp
°C
App
Temp
°C
Dew
Point
Rel
Hum
%
Delta-T
°C
Wind Press
QNH
hPa
Press
MSL
hPa
Rain
since 9 am
mm
Dir
 
Spd
km/h
Gust
km/h
Spd
kts
Gust
kts
12/11:30pm 19.8 20.1 15.0 74 2.8 SSW 7 9 4 5 1011.8 1011.8 0.0
12/11:00pm 19.6 20.9 14.2 71 3.1 CALM 0 0 0 0 1011.9 1011.9 0.0
12/10:30pm 22.2 23.5 14.0 59 4.8 CALM 0 0 0 0 1011.9 1011.9 0.0
12/10:00pm 21.6 21.2 14.0 62 4.4 NNE 9 13 5 7 1012.0 1012.0 0.0
12/09:30pm 22.5 22.8 14.5 60 4.7 NE 6 9 3 5 1011.9 1011.9 0.0
12/09:00pm 22.5 22.9 15.3 63 4.3 NE 7 9 4 5 1012.0 1012.0 0.0
12/08:30pm 21.8 21.9 15.6 68 3.7 SSW 9 13 5 7 1012.3 1012.3 0.0
12/08:00pm 22.4 20.6 16.1 67 3.8 SSW 20 28 11 15 1012.4 1012.4 0.0
12/07:30pm 23.3 21.2 17.1 68 3.8 SSW 24 33 13 18 1012.2 1012.2 0.0
12/07:00pm 24.4 22.4 17.3 64 4.4 SW 24 37 13 20 1012.0 1012.0 0.0
12/06:30pm 25.2 23.3 15.8 56 5.7 SW 20 28 11 15 1011.5 1011.5 0.0
12/06:00pm 25.9 23.7 14.5 49 6.8 SW 19 24 10 13 1011.4 1011.4 0.0
12/05:30pm 26.8 24.1 11.8 39 8.6 SW 17 20 9 11 1011.5 1011.5 0.0
12/05:00pm 26.6 24.3 11.8 39 8.5 WSW 15 19 8 10 1011.6 1011.6 0.0
12/04:30pm 26.6 24.5 13.6 44 7.7 SW 17 20 9 11 1011.8 1011.8 0.0
12/04:00pm 26.3 24.4 13.1 44 7.7 SW 15 20 8 11 1012.0 1012.0 0.0
12/03:30pm 26.8 24.6 13.2 43 8.0 SW 17 19 9 10 1012.1 1012.1 0.0
12/03:00pm 26.6 24.0 13.1 43 7.9 WSW 19 24 10 13 1012.6 1012.6 0.0
12/02:30pm 25.4 23.2 14.3 50 6.6 SW 19 26 10 14 1013.0 1013.0 0.0
12/02:00pm 25.3 23.7 16.0 56 5.7 WSW 19 26 10 14 1013.3 1013.3 0.0
12/01:30pm 24.9 23.7 16.2 58 5.3 WSW 17 26 9 14 1013.5 1013.5 0.0
12/01:00pm 23.8 22.5 14.7 56 5.4 SW 15 19 8 10 1013.9 1013.9 0.0
12/12:30pm 24.3 22.4 14.3 53 5.9 WSW 17 24 9 13 1014.2 1014.2 0.0
12/12:00pm 24.0 22.3 14.6 55 5.6 WSW 17 20 9 11 1014.5 1014.5 0.0
12/11:30am 23.7 22.4 13.6 53 5.9 WSW 13 17 7 9 1014.7 1014.7 0.0
12/11:00am 23.3 22.2 13.1 52 5.9 WSW 11 17 6 9 1014.8 1014.8 0.0
12/10:30am 23.4 22.4 12.3 49 6.3 WSW 9 15 5 8 1014.8 1014.8 0.0
12/10:00am 22.5 21.4 11.8 50 6.0 WSW 9 13 5 7 1015.0 1015.0 0.0
12/09:30am 22.2 21.3 12.5 54 5.5 SW 9 13 5 7 1015.3 1015.3 0.0

Other Formats:

Comma delimited format used in spreadsheet applications
http://www.bom.gov.au/fwo/IDS60801/IDS60801.94672.axf

JavaScript Object Notation format (JSON) in row-major order
http://www.bom.gov.au/fwo/IDS60801/IDS60801.94672.json